Time,TemperatureF,DewpointF,PressureIn,WindDirection,WindDirectionDegrees,WindSpeedMPH,WindSpeedGustMPH,Humidity,HourlyPrecipIn,Conditions,Clouds,dailyrainin,SoftwareType,DateUTC
2013-01-22 00:12:00,49.6,38.0,30.09,SW,227,0.0,-999.0,65,-99.99,,,0.00,weatherlink.com 1.10,2013-01-22 08:12:00,
2013-01-22 00:27:00,49.9,38.0,30.09,South,181,0.0,-999.0,64,-99.99,,,0.00,weatherlink.com 1.10,2013-01-22 08:27:00,
2013-01-22 00:58:00,50.2,38.0,30.07,NNE,12,0.0,-999.0,64,-99.99,,,0.00,weatherlink.com 1.10,2013-01-22 08:58:00,
2013-01-22 01:13:00,50.2,39.0,30.08,NE,54,0.0,-999.0,65,-99.99,,,0.00,weatherlink.com 1.10,2013-01-22 09:13:00,
2013-01-22 01:28:00,49.9,39.0,30.08,WSW,243,1.0,-999.0,66,-99.99,,,0.00,weatherlink.com 1.10,2013-01-22 09:28:00,
2013-01-22 01:43:00,49.5,39.0,30.07,WSW,243,1.0,-999.0,68,-99.99,,,0.00,weatherlink.com 1.10,2013-01-22 09:43:00,
2013-01-22 01:58:00,49.2,39.0,30.08,South,188,0.0,-999.0,68,-99.99,,,0.00,weatherlink.com 1.10,2013-01-22 09:58:00,
2013-01-22 02:28:00,49.6,39.0,30.07,WSW,244,2.0,-999.0,68,-99.99,,,0.00,weatherlink.com 1.10,2013-01-22 10:28:00,
2013-01-22 02:43:00,50.1,39.0,30.07,SSW,198,1.0,-999.0,67,-99.99,,,0.00,weatherlink.com 1.10,2013-01-22 10:43:00,
2013-01-22 02:58:00,50.3,39.0,30.07,South,182,2.0,-999.0,66,-99.99,,,0.00,weatherlink.com 1.10,2013-01-22 10:58:00,
2013-01-22 03:13:00,50.3,39.0,30.06,SSW,195,0.0,-999.0,65,-99.99,,,0.00,weatherlink.com 1.10,2013-01-22 11:13:00,
2013-01-22 03:28:00,50.3,39.0,30.06,South,188,0.0,-999.0,66,-99.99,,,0.00,weatherlink.com 1.10,2013-01-22 11:28:00,
2013-01-22 03:43:00,50.0,39.0,30.05,South,181,0.0,-999.0,65,-99.99,,,0.00,weatherlink.com 1.10,2013-01-22 11:43:00,
2013-01-22 03:58:00,50.2,39.0,30.05,SSW,196,2.0,-999.0,65,-99.99,,,0.00,weatherlink.com 1.10,2013-01-22 11:58:00,
2013-01-22 04:13:00,50.1,38.0,30.05,SSW,195,0.0,-999.0,64,-99.99,,,0.00,weatherlink.com 1.10,2013-01-22 12:13:00,
2013-01-22 04:28:00,49.8,38.0,30.05,South,182,1.0,-999.0,63,-99.99,,,0.00,weatherlink.com 1.10,2013-01-22 12:28:00,
2013-01-22 04:43:00,49.9,37.0,30.05,WSW,255,0.0,-999.0,62,-99.99,,,0.00,weatherlink.com 1.10,2013-01-22 12:43:00,
2013-01-22 04:58:00,49.7,37.0,30.05,South,169,1.0,-999.0,62,-99.99,,,0.00,weatherlink.com 1.10,2013-01-22 12:58:00,
2013-01-22 05:13:00,49.6,37.0,30.05,NW,324,0.0,-999.0,63,-99.99,,,0.00,weatherlink.com 1.10,2013-01-22 13:13:00,
2013-01-22 05:28:00,48.8,37.0,30.06,SSE,158,0.0,-999.0,64,-99.99,,,0.00,weatherlink.com 1.10,2013-01-22 13:28:00,
2013-01-22 05:43:00,48.5,37.0,30.05,SSE,165,2.0,-999.0,64,-99.99,,,0.00,weatherlink.com 1.10,2013-01-22 13:43:00,
2013-01-22 05:58:00,48.6,37.0,30.06,SSW,196,0.0,-999.0,65,-99.99,,,0.00,weatherlink.com 1.10,2013-01-22 13:58:00,
2013-01-22 06:13:00,48.0,37.0,30.07,South,176,0.0,-999.0,67,-99.99,,,0.00,weatherlink.com 1.10,2013-01-22 14:13:00,
2013-01-22 06:28:00,47.9,37.0,30.07,South,181,1.0,-999.0,67,-99.99,,,0.00,weatherlink.com 1.10,2013-01-22 14:28:00,
2013-01-22 06:43:00,47.8,37.0,30.07,ESE,121,1.0,-999.0,67,-99.99,,,0.00,weatherlink.com 1.10,2013-01-22 14:43:00,
2013-01-22 06:58:00,47.8,37.0,30.07,SSW,206,1.0,-999.0,67,-99.99,,,0.00,weatherlink.com 1.10,2013-01-22 14:58:00,
2013-01-22 07:13:00,47.8,37.0,30.07,SSW,209,0.0,-999.0,67,-99.99,,,0.00,weatherlink.com 1.10,2013-01-22 15:13:00,
2013-01-22 07:28:00,48.1,38.0,30.07,SW,222,0.0,-999.0,67,-99.99,,,0.00,weatherlink.com 1.10,2013-01-22 15:28:00,
2013-01-22 07:43:00,48.2,37.0,30.07,South,188,1.0,-999.0,65,-99.99,,,0.00,weatherlink.com 1.10,2013-01-22 15:43:00,
2013-01-22 07:58:00,48.5,38.0,30.07,South,188,0.0,-999.0,67,-99.99,,,0.00,weatherlink.com 1.10,2013-01-22 15:58:00,
2013-01-22 08:13:00,48.7,38.0,30.07,South,177,0.0,-999.0,66,-99.99,,,0.00,weatherlink.com 1.10,2013-01-22 16:13:00,
2013-01-22 08:28:00,49.5,38.0,30.07,SSE,161,1.0,-999.0,66,-99.99,,,0.00,weatherlink.com 1.10,2013-01-22 16:28:00,
2013-01-22 08:43:00,50.6,39.0,30.07,SSE,168,1.0,-999.0,65,-99.99,,,0.00,weatherlink.com 1.10,2013-01-22 16:43:00,
2013-01-22 08:58:00,52.1,40.0,30.07,WSW,238,2.0,-999.0,64,-99.99,,,0.00,weatherlink.com 1.10,2013-01-22 16:58:00,
2013-01-22 09:13:00,53.5,40.0,30.07,SW,218,1.0,-999.0,60,-99.99,,,0.00,weatherlink.com 1.10,2013-01-22 17:13:00,
2013-01-22 09:28:00,55.0,41.0,30.07,SW,227,0.0,-999.0,59,-99.99,,,0.00,weatherlink.com 1.10,2013-01-22 17:28:00,
2013-01-22 09:43:00,56.1,41.0,30.08,South,181,3.0,-999.0,57,-99.99,,,0.00,weatherlink.com 1.10,2013-01-22 17:43:00,
2013-01-22 09:58:00,57.5,41.0,30.08,SW,231,2.0,-999.0,55,-99.99,,,0.00,weatherlink.com 1.10,2013-01-22 17:58:00,
2013-01-22 10:14:00,59.3,41.0,30.09,SSW,192,2.0,-999.0,52,-99.99,,,0.00,weatherlink.com 1.10,2013-01-22 18:14:00,
2013-01-22 10:29:00,60.6,41.0,30.09,WSW,254,1.0,-999.0,49,-99.99,,,0.00,weatherlink.com 1.10,2013-01-22 18:29:00,
2013-01-22 10:44:00,62.0,42.0,30.09,South,175,3.0,-999.0,48,-99.99,,,0.00,weatherlink.com 1.10,2013-01-22 18:44:00,
2013-01-22 10:59:00,62.9,42.0,30.09,WSW,243,2.0,-999.0,47,-99.99,,,0.00,weatherlink.com 1.10,2013-01-22 18:59:00,
2013-01-22 11:14:00,63.2,42.0,30.09,SSW,203,0.0,-999.0,47,-99.99,,,0.00,weatherlink.com 1.10,2013-01-22 19:14:00,
2013-01-22 11:29:00,64.2,42.0,30.08,SW,233,0.0,-999.0,44,-99.99,,,0.00,weatherlink.com 1.10,2013-01-22 19:29:00,
2013-01-22 11:44:00,64.6,41.0,30.07,SW,216,1.0,-999.0,43,-99.99,,,0.00,weatherlink.com 1.10,2013-01-22 19:44:00,
2013-01-22 11:59:00,64.5,43.0,30.06,ENE,61,3.0,-999.0,45,-99.99,,,0.00,weatherlink.com 1.10,2013-01-22 19:59:00,
2013-01-22 12:14:00,65.0,42.0,30.05,SW,225,2.0,-999.0,43,-99.99,,,0.00,weatherlink.com 1.10,2013-01-22 20:14:00,
2013-01-22 12:29:00,65.2,42.0,30.05,SSE,147,2.0,-999.0,43,-99.99,,,0.00,weatherlink.com 1.10,2013-01-22 20:29:00,
2013-01-22 12:44:00,65.3,41.0,30.03,South,172,0.0,-999.0,42,-99.99,,,0.00,weatherlink.com 1.10,2013-01-22 20:44:00,
2013-01-22 12:59:00,65.3,43.0,30.03,SW,227,2.0,-999.0,44,-99.99,,,0.00,weatherlink.com 1.10,2013-01-22 20:59:00,
2013-01-22 13:14:00,65.8,41.0,30.02,SW,233,1.0,-999.0,41,-99.99,,,0.00,weatherlink.com 1.10,2013-01-22 21:14:00,
2013-01-22 13:29:00,64.7,42.0,30.01,West,267,0.0,-999.0,43,-99.99,,,0.00,weatherlink.com 1.10,2013-01-22 21:29:00,
2013-01-22 13:44:00,64.5,43.0,30.01,East,100,1.0,-999.0,45,-99.99,,,0.00,weatherlink.com 1.10,2013-01-22 21:44:00,
2013-01-22 13:59:00,63.7,41.0,30.01,NNE,30,0.0,-999.0,44,-99.99,,,0.00,weatherlink.com 1.10,2013-01-22 21:59:00,
2013-01-22 14:14:00,64.0,43.0,30.00,SSW,211,0.0,-999.0,47,-99.99,,,0.00,weatherlink.com 1.10,2013-01-22 22:14:00,
2013-01-22 14:29:00,64.9,42.0,30.00,East,94,0.0,-999.0,43,-99.99,,,0.00,weatherlink.com 1.10,2013-01-22 22:29:00,
2013-01-22 14:44:00,64.1,43.0,30.00,SW,235,0.0,-999.0,47,-99.99,,,0.00,weatherlink.com 1.10,2013-01-22 22:44:00,
2013-01-22 14:59:00,63.1,42.0,30.00,SW,225,3.0,-999.0,47,-99.99,,,0.00,weatherlink.com 1.10,2013-01-22 22:59:00,
2013-01-22 15:14:00,62.0,43.0,30.00,SW,218,0.0,-999.0,51,-99.99,,,0.00,weatherlink.com 1.10,2013-01-22 23:14:00,
2013-01-22 15:44:00,61.1,44.0,29.99,SW,218,0.0,-999.0,53,-99.99,,,0.00,weatherlink.com 1.10,2013-01-22 23:44:00,
2013-01-22 15:59:00,60.5,44.0,29.98,SW,217,0.0,-999.0,54,-99.99,,,0.00,weatherlink.com 1.10,2013-01-22 23:59:00,
2013-01-22 16:14:00,59.7,44.0,29.98,SW,218,0.0,-999.0,57,-99.99,,,0.00,weatherlink.com 1.10,2013-01-23 00:14:00,
2013-01-22 16:29:00,58.9,45.0,29.98,SW,218,0.0,-999.0,60,-99.99,,,0.00,weatherlink.com 1.10,2013-01-23 00:29:00,
2013-01-22 16:44:00,58.2,45.0,29.98,SW,218,0.0,-999.0,62,-99.99,,,0.00,weatherlink.com 1.10,2013-01-23 00:44:00,
2013-01-22 16:59:00,57.2,44.0,29.98,SW,218,0.0,-999.0,62,-99.99,,,0.00,weatherlink.com 1.10,2013-01-23 00:59:00,
2013-01-22 17:14:00,56.3,43.0,29.98,SW,218,0.0,-999.0,62,-99.99,,,0.00,weatherlink.com 1.10,2013-01-23 01:14:00,
2013-01-22 17:29:00,55.3,44.0,29.98,SW,218,0.0,-999.0,66,-99.99,,,0.00,weatherlink.com 1.10,2013-01-23 01:29:00,
2013-01-22 17:44:00,54.3,44.0,29.97,SW,218,0.0,-999.0,69,-99.99,,,0.00,weatherlink.com 1.10,2013-01-23 01:44:00,
2013-01-22 17:59:00,53.4,44.0,29.98,SW,217,0.0,-999.0,71,-99.99,,,0.00,weatherlink.com 1.10,2013-01-23 01:59:00,
2013-01-22 18:14:00,52.7,44.0,29.98,SW,218,0.0,-999.0,72,-99.99,,,0.00,weatherlink.com 1.10,2013-01-23 02:14:00,
2013-01-22 18:29:00,52.1,44.0,29.98,SW,218,0.0,-999.0,73,-99.99,,,0.00,weatherlink.com 1.10,2013-01-23 02:29:00,
2013-01-22 18:44:00,51.4,44.0,29.99,SW,218,0.0,-999.0,75,-99.99,,,0.00,weatherlink.com 1.10,2013-01-23 02:44:00,
2013-01-22 18:59:00,50.9,44.0,29.98,SW,218,0.0,-999.0,76,-99.99,,,0.00,weatherlink.com 1.10,2013-01-23 02:59:00,
2013-01-22 19:14:00,50.3,43.0,29.98,SW,218,0.0,-999.0,77,-99.99,,,0.00,weatherlink.com 1.10,2013-01-23 03:14:00,
2013-01-22 19:29:00,49.8,43.0,29.98,SW,218,0.0,-999.0,78,-99.99,,,0.00,weatherlink.com 1.10,2013-01-23 03:29:00,
2013-01-22 19:44:00,49.6,43.0,29.98,SW,218,0.0,-999.0,79,-99.99,,,0.00,weatherlink.com 1.10,2013-01-23 03:44:00,
2013-01-22 19:59:00,49.4,44.0,29.98,SW,218,0.0,-999.0,80,-99.99,,,0.00,weatherlink.com 1.10,2013-01-23 03:59:00,
2013-01-22 20:15:00,49.3,43.0,29.99,SW,218,0.0,-999.0,80,-99.99,,,0.00,weatherlink.com 1.10,2013-01-23 04:15:00,
2013-01-22 20:29:00,49.2,43.0,30.00,SW,218,0.0,-999.0,80,-99.99,,,0.00,weatherlink.com 1.10,2013-01-23 04:29:00,
2013-01-22 20:44:00,49.0,43.0,30.00,SW,218,0.0,-999.0,81,-99.99,,,0.00,weatherlink.com 1.10,2013-01-23 04:44:00,
2013-01-22 20:59:00,48.8,43.0,30.00,SW,217,0.0,-999.0,81,-99.99,,,0.00,weatherlink.com 1.10,2013-01-23 04:59:00,
2013-01-22 21:15:00,48.5,43.0,30.00,SW,218,0.0,-999.0,82,-99.99,,,0.00,weatherlink.com 1.10,2013-01-23 05:15:00,
2013-01-22 21:30:00,48.2,43.0,30.00,SW,218,0.0,-999.0,83,-99.99,,,0.00,weatherlink.com 1.10,2013-01-23 05:30:00,
2013-01-22 21:45:00,48.1,43.0,30.01,SW,218,0.0,-999.0,83,-99.99,,,0.00,weatherlink.com 1.10,2013-01-23 05:45:00,
2013-01-22 22:00:00,48.0,43.0,30.01,SW,217,0.0,-999.0,84,-99.99,,,0.00,weatherlink.com 1.10,2013-01-23 06:00:00,
2013-01-22 22:15:00,48.1,44.0,30.01,SW,218,0.0,-999.0,84,-99.99,,,0.00,weatherlink.com 1.10,2013-01-23 06:15:00,
2013-01-22 22:30:00,48.1,44.0,30.01,SW,218,0.0,-999.0,84,-99.99,,,0.00,weatherlink.com 1.10,2013-01-23 06:30:00,
2013-01-22 22:45:00,48.2,44.0,30.02,SW,218,0.0,-999.0,84,-99.99,,,0.00,weatherlink.com 1.10,2013-01-23 06:45:00,
2013-01-22 23:00:00,48.2,43.0,30.02,SW,218,0.0,-999.0,83,-99.99,,,0.00,weatherlink.com 1.10,2013-01-23 07:00:00,
2013-01-22 23:15:00,48.2,44.0,30.02,SW,218,0.0,-999.0,84,-99.99,,,0.00,weatherlink.com 1.10,2013-01-23 07:15:00,
2013-01-22 23:30:00,48.2,44.0,30.02,SW,218,0.0,-999.0,84,-99.99,,,0.00,weatherlink.com 1.10,2013-01-23 07:30:00,
2013-01-22 23:45:00,48.2,44.0,30.01,SW,218,0.0,-999.0,85,-99.99,,,0.00,weatherlink.com 1.10,2013-01-23 07:45:00,